Vernon, Oklahoma
Current Conditions -  °F | °C
As of 9:53 AM on Thursday 27 Nov 2014 (Local Time) from KMLC Reporting Station
Few Clouds Few Clouds  
Wind Chill:   Ceiling: Unl
Heat Index:   Visibility: 10mi
Dew Point: -3°   Wind: 6mph
Humidity: 62%   Direction: 40°NE
Pressure: 30.57"   Gusts: NA
Location:  35.2158°N, 95.8817°W
Report Text: KMLC 271553Z AUTO 04005KT 10SM FEW110 03/M03 A3057 RMK AO2 SLP355 T00331033
Loading
Personal Weather Stations






























Interactive Weather Map New forecast layout! Learn more

10-Day Weather Forecast

Advertisements
Track Severe Weather on mobile